sensor_id;sensor_type;location;lat;lon;timestamp;P1;durP1;ratioP1;P2;durP2;ratioP2
63346;SDS011;49472;49.880;8.650;2023-05-15T00:00:13;15.20;;;13.90;;
63346;SDS011;49472;49.880;8.650;2023-05-15T00:02:39;15.13;;;14.23;;
63346;SDS011;49472;49.880;8.650;2023-05-15T00:05:05;15.03;;;14.07;;
63346;SDS011;49472;49.880;8.650;2023-05-15T00:07:31;15.50;;;14.50;;
63346;SDS011;49472;49.880;8.650;2023-05-15T00:09:57;16.40;;;14.87;;
63346;SDS011;49472;49.880;8.650;2023-05-15T00:12:22;14.97;;;13.87;;
63346;SDS011;49472;49.880;8.650;2023-05-15T00:14:47;15.10;;;14.13;;
63346;SDS011;49472;49.880;8.650;2023-05-15T00:17:12;16.00;;;14.30;;
63346;SDS011;49472;49.880;8.650;2023-05-15T00:19:38;14.83;;;13.83;;
63346;SDS011;49472;49.880;8.650;2023-05-15T00:22:03;14.63;;;13.63;;
63346;SDS011;49472;49.880;8.650;2023-05-15T00:24:29;15.23;;;14.13;;
63346;SDS011;49472;49.880;8.650;2023-05-15T00:26:54;15.63;;;14.63;;
63346;SDS011;49472;49.880;8.650;2023-05-15T00:29:19;15.23;;;14.33;;
63346;SDS011;49472;49.880;8.650;2023-05-15T00:31:45;15.60;;;14.40;;
63346;SDS011;49472;49.880;8.650;2023-05-15T00:34:10;15.07;;;14.07;;
63346;SDS011;49472;49.880;8.650;2023-05-15T00:36:35;15.30;;;14.03;;
63346;SDS011;49472;49.880;8.650;2023-05-15T00:39:01;15.23;;;14.13;;
63346;SDS011;49472;49.880;8.650;2023-05-15T00:41:26;16.30;;;14.90;;
63346;SDS011;49472;49.880;8.650;2023-05-15T00:43:56;15.47;;;14.27;;
63346;SDS011;49472;49.880;8.650;2023-05-15T00:46:21;15.20;;;14.20;;
63346;SDS011;49472;49.880;8.650;2023-05-15T00:48:51;15.47;;;14.37;;
63346;SDS011;49472;49.880;8.650;2023-05-15T00:51:17;15.10;;;13.90;;
63346;SDS011;49472;49.880;8.650;2023-05-15T00:53:43;15.30;;;14.30;;
63346;SDS011;49472;49.880;8.650;2023-05-15T00:56:08;14.40;;;13.50;;
63346;SDS011;49472;49.880;8.650;2023-05-15T00:58:35;15.43;;;14.30;;
63346;SDS011;49472;49.880;8.650;2023-05-15T01:01:01;14.10;;;13.30;;
63346;SDS011;49472;49.880;8.650;2023-05-15T01:03:27;16.43;;;15.17;;
63346;SDS011;49472;49.880;8.650;2023-05-15T01:05:52;15.10;;;13.90;;
63346;SDS011;49472;49.880;8.650;2023-05-15T01:08:37;15.40;;;14.30;;
63346;SDS011;49472;49.880;8.650;2023-05-15T01:11:06;14.60;;;13.70;;
63346;SDS011;49472;49.880;8.650;2023-05-15T01:13:32;16.03;;;14.73;;
63346;SDS011;49472;49.880;8.650;2023-05-15T01:15:58;15.43;;;14.33;;
63346;SDS011;49472;49.880;8.650;2023-05-15T01:18:24;15.30;;;14.10;;
63346;SDS011;49472;49.880;8.650;2023-05-15T01:26:47;15.17;;;14.07;;
63346;SDS011;49472;49.880;8.650;2023-05-15T01:32:08;15.63;;;14.17;;
63346;SDS011;49472;49.880;8.650;2023-05-15T01:34:39;15.77;;;14.67;;
63346;SDS011;49472;49.880;8.650;2023-05-15T01:37:10;15.33;;;14.33;;
63346;SDS011;49472;49.880;8.650;2023-05-15T01:39:38;16.13;;;15.13;;
63346;SDS011;49472;49.880;8.650;2023-05-15T01:42:06;15.60;;;14.50;;
63346;SDS011;49472;49.880;8.650;2023-05-15T01:44:35;16.67;;;15.27;;
63346;SDS011;49472;49.880;8.650;2023-05-15T01:47:08;16.03;;;14.73;;
63346;SDS011;49472;49.880;8.650;2023-05-15T01:49:36;15.77;;;14.67;;
63346;SDS011;49472;49.880;8.650;2023-05-15T01:52:13;16.47;;;14.97;;
63346;SDS011;49472;49.880;8.650;2023-05-15T01:54:42;15.80;;;14.77;;
63346;SDS011;49472;49.880;8.650;2023-05-15T01:57:10;15.73;;;14.67;;
63346;SDS011;49472;49.880;8.650;2023-05-15T01:59:37;16.30;;;15.10;;
63346;SDS011;49472;49.880;8.650;2023-05-15T02:02:04;15.53;;;14.23;;
63346;SDS011;49472;49.880;8.650;2023-05-15T02:04:30;16.10;;;14.70;;
63346;SDS011;49472;49.880;8.650;2023-05-15T02:06:57;16.47;;;15.37;;
63346;SDS011;49472;49.880;8.650;2023-05-15T02:09:25;15.73;;;14.70;;
63346;SDS011;49472;49.880;8.650;2023-05-15T02:11:51;15.70;;;14.50;;
63346;SDS011;49472;49.880;8.650;2023-05-15T02:14:17;16.50;;;15.30;;
63346;SDS011;49472;49.880;8.650;2023-05-15T02:16:43;15.57;;;14.47;;
63346;SDS011;49472;49.880;8.650;2023-05-15T02:19:08;15.40;;;14.30;;
63346;SDS011;49472;49.880;8.650;2023-05-15T02:21:34;14.23;;;13.33;;
63346;SDS011;49472;49.880;8.650;2023-05-15T02:23:59;16.17;;;14.97;;
63346;SDS011;49472;49.880;8.650;2023-05-15T02:26:48;15.67;;;14.60;;
63346;SDS011;49472;49.880;8.650;2023-05-15T02:29:27;16.83;;;15.60;;
63346;SDS011;49472;49.880;8.650;2023-05-15T02:34:33;15.57;;;14.50;;
63346;SDS011;49472;49.880;8.650;2023-05-15T02:37:00;15.33;;;14.07;;
63346;SDS011;49472;49.880;8.650;2023-05-15T02:39:28;16.00;;;15.00;;
63346;SDS011;49472;49.880;8.650;2023-05-15T02:41:54;15.80;;;14.80;;
63346;SDS011;49472;49.880;8.650;2023-05-15T02:44:21;16.53;;;15.20;;
63346;SDS011;49472;49.880;8.650;2023-05-15T02:46:47;15.90;;;14.90;;
63346;SDS011;49472;49.880;8.650;2023-05-15T02:49:14;15.40;;;14.50;;
63346;SDS011;49472;49.880;8.650;2023-05-15T02:51:40;15.70;;;14.70;;
63346;SDS011;49472;49.880;8.650;2023-05-15T02:54:06;15.60;;;14.40;;
63346;SDS011;49472;49.880;8.650;2023-05-15T02:56:33;15.67;;;14.57;;
63346;SDS011;49472;49.880;8.650;2023-05-15T02:58:58;16.23;;;14.93;;
63346;SDS011;49472;49.880;8.650;2023-05-15T03:01:24;15.67;;;14.67;;
63346;SDS011;49472;49.880;8.650;2023-05-15T03:03:49;17.13;;;15.13;;
63346;SDS011;49472;49.880;8.650;2023-05-15T03:06:14;15.80;;;14.80;;
63346;SDS011;49472;49.880;8.650;2023-05-15T03:08:40;15.20;;;14.30;;
63346;SDS011;49472;49.880;8.650;2023-05-15T03:11:05;15.50;;;14.40;;
63346;SDS011;49472;49.880;8.650;2023-05-15T03:13:31;16.30;;;15.10;;
63346;SDS011;49472;49.880;8.650;2023-05-15T03:15:56;16.73;;;15.13;;
63346;SDS011;49472;49.880;8.650;2023-05-15T03:18:21;16.50;;;15.40;;
63346;SDS011;49472;49.880;8.650;2023-05-15T03:20:47;16.00;;;14.80;;
63346;SDS011;49472;49.880;8.650;2023-05-15T03:23:13;17.03;;;15.70;;
63346;SDS011;49472;49.880;8.650;2023-05-15T03:25:39;16.40;;;15.20;;
63346;SDS011;49472;49.880;8.650;2023-05-15T03:28:04;16.33;;;15.13;;
63346;SDS011;49472;49.880;8.650;2023-05-15T03:30:30;16.60;;;14.97;;
63346;SDS011;49472;49.880;8.650;2023-05-15T03:32:55;15.87;;;14.83;;
63346;SDS011;49472;49.880;8.650;2023-05-15T03:35:21;16.60;;;15.40;;
63346;SDS011;49472;49.880;8.650;2023-05-15T03:37:47;15.80;;;14.43;;
63346;SDS011;49472;49.880;8.650;2023-05-15T03:40:12;17.20;;;15.90;;
63346;SDS011;49472;49.880;8.650;2023-05-15T03:42:37;17.00;;;15.60;;
63346;SDS011;49472;49.880;8.650;2023-05-15T03:45:03;16.80;;;15.70;;
63346;SDS011;49472;49.880;8.650;2023-05-15T03:47:28;16.10;;;14.90;;
63346;SDS011;49472;49.880;8.650;2023-05-15T03:49:54;15.97;;;14.70;;
63346;SDS011;49472;49.880;8.650;2023-05-15T03:52:19;18.33;;;16.67;;
63346;SDS011;49472;49.880;8.650;2023-05-15T03:54:44;16.33;;;15.17;;
63346;SDS011;49472;49.880;8.650;2023-05-15T03:57:10;18.03;;;16.40;;
63346;SDS011;49472;49.880;8.650;2023-05-15T03:59:36;17.63;;;16.37;;
63346;SDS011;49472;49.880;8.650;2023-05-15T04:02:01;17.43;;;16.13;;
63346;SDS011;49472;49.880;8.650;2023-05-15T04:04:26;23.97;;;16.93;;
63346;SDS011;49472;49.880;8.650;2023-05-15T04:06:52;17.53;;;16.10;;
63346;SDS011;49472;49.880;8.650;2023-05-15T04:09:17;18.37;;;16.87;;
63346;SDS011;49472;49.880;8.650;2023-05-15T04:11:42;17.23;;;16.00;;
63346;SDS011;49472;49.880;8.650;2023-05-15T04:14:10;16.43;;;15.33;;
63346;SDS011;49472;49.880;8.650;2023-05-15T04:16:36;21.47;;;16.70;;
63346;SDS011;49472;49.880;8.650;2023-05-15T04:19:01;17.93;;;16.57;;
63346;SDS011;49472;49.880;8.650;2023-05-15T04:21:26;20.33;;;17.27;;
63346;SDS011;49472;49.880;8.650;2023-05-15T04:23:51;17.93;;;16.33;;
63346;SDS011;49472;49.880;8.650;2023-05-15T04:26:17;17.67;;;16.27;;
63346;SDS011;49472;49.880;8.650;2023-05-15T04:28:42;17.53;;;16.33;;
63346;SDS011;49472;49.880;8.650;2023-05-15T04:31:07;18.27;;;16.87;;
63346;SDS011;49472;49.880;8.650;2023-05-15T04:33:32;20.07;;;18.17;;
63346;SDS011;49472;49.880;8.650;2023-05-15T04:35:58;18.10;;;16.60;;
63346;SDS011;49472;49.880;8.650;2023-05-15T04:38:23;17.60;;;16.10;;
63346;SDS011;49472;49.880;8.650;2023-05-15T04:40:49;17.37;;;16.13;;
63346;SDS011;49472;49.880;8.650;2023-05-15T04:43:15;17.37;;;16.07;;
63346;SDS011;49472;49.880;8.650;2023-05-15T04:45:40;18.80;;;17.10;;
63346;SDS011;49472;49.880;8.650;2023-05-15T04:48:05;17.60;;;16.10;;
63346;SDS011;49472;49.880;8.650;2023-05-15T04:50:31;17.60;;;16.17;;
63346;SDS011;49472;49.880;8.650;2023-05-15T04:52:56;24.30;;;15.83;;
63346;SDS011;49472;49.880;8.650;2023-05-15T04:55:21;17.10;;;15.90;;
63346;SDS011;49472;49.880;8.650;2023-05-15T04:57:47;18.03;;;16.47;;
63346;SDS011;49472;49.880;8.650;2023-05-15T05:00:12;18.20;;;16.53;;
63346;SDS011;49472;49.880;8.650;2023-05-15T05:02:38;16.87;;;15.67;;
63346;SDS011;49472;49.880;8.650;2023-05-15T05:05:04;19.37;;;17.50;;
63346;SDS011;49472;49.880;8.650;2023-05-15T05:07:31;19.40;;;17.70;;
63346;SDS011;49472;49.880;8.650;2023-05-15T05:09:59;19.23;;;17.73;;
63346;SDS011;49472;49.880;8.650;2023-05-15T05:12:25;19.50;;;17.90;;
63346;SDS011;49472;49.880;8.650;2023-05-15T05:14:50;20.23;;;18.63;;
63346;SDS011;49472;49.880;8.650;2023-05-15T05:17:15;20.00;;;18.37;;
63346;SDS011;49472;49.880;8.650;2023-05-15T05:19:41;19.10;;;17.50;;
63346;SDS011;49472;49.880;8.650;2023-05-15T05:22:06;20.03;;;18.30;;
63346;SDS011;49472;49.880;8.650;2023-05-15T05:24:32;21.10;;;19.40;;
63346;SDS011;49472;49.880;8.650;2023-05-15T05:26:59;21.77;;;19.83;;
63346;SDS011;49472;49.880;8.650;2023-05-15T05:29:25;21.50;;;19.57;;
63346;SDS011;49472;49.880;8.650;2023-05-15T05:31:50;21.50;;;19.80;;
63346;SDS011;49472;49.880;8.650;2023-05-15T05:34:16;22.20;;;20.27;;
63346;SDS011;49472;49.880;8.650;2023-05-15T05:36:41;22.80;;;20.63;;
63346;SDS011;49472;49.880;8.650;2023-05-15T05:39:06;22.27;;;20.40;;
63346;SDS011;49472;49.880;8.650;2023-05-15T05:41:32;22.40;;;20.40;;
63346;SDS011;49472;49.880;8.650;2023-05-15T05:43:57;24.97;;;22.47;;
63346;SDS011;49472;49.880;8.650;2023-05-15T05:46:22;23.23;;;21.00;;
63346;SDS011;49472;49.880;8.650;2023-05-15T05:48:47;22.40;;;20.60;;
63346;SDS011;49472;49.880;8.650;2023-05-15T05:51:13;21.73;;;19.93;;
63346;SDS011;49472;49.880;8.650;2023-05-15T05:53:39;21.83;;;19.80;;
63346;SDS011;49472;49.880;8.650;2023-05-15T05:56:04;20.70;;;19.00;;
63346;SDS011;49472;49.880;8.650;2023-05-15T05:58:30;19.77;;;18.13;;
63346;SDS011;49472;49.880;8.650;2023-05-15T06:00:55;21.10;;;19.40;;
63346;SDS011;49472;49.880;8.650;2023-05-15T06:03:20;17.73;;;16.47;;
63346;SDS011;49472;49.880;8.650;2023-05-15T06:05:46;20.67;;;18.97;;
63346;SDS011;49472;49.880;8.650;2023-05-15T06:08:12;19.73;;;18.33;;
63346;SDS011;49472;49.880;8.650;2023-05-15T06:10:38;20.40;;;18.40;;
63346;SDS011;49472;49.880;8.650;2023-05-15T06:13:03;19.07;;;17.67;;
63346;SDS011;49472;49.880;8.650;2023-05-15T06:15:29;20.30;;;18.23;;
63346;SDS011;49472;49.880;8.650;2023-05-15T06:17:54;22.53;;;18.57;;
63346;SDS011;49472;49.880;8.650;2023-05-15T06:20:20;18.97;;;17.47;;
63346;SDS011;49472;49.880;8.650;2023-05-15T06:22:46;18.90;;;17.33;;
63346;SDS011;49472;49.880;8.650;2023-05-15T06:25:12;18.83;;;17.27;;
63346;SDS011;49472;49.880;8.650;2023-05-15T06:27:41;17.97;;;16.70;;
63346;SDS011;49472;49.880;8.650;2023-05-15T06:30:07;18.73;;;17.13;;
63346;SDS011;49472;49.880;8.650;2023-05-15T06:32:33;18.53;;;17.20;;
63346;SDS011;49472;49.880;8.650;2023-05-15T06:34:58;17.70;;;16.40;;
63346;SDS011;49472;49.880;8.650;2023-05-15T06:37:24;19.20;;;17.80;;
63346;SDS011;49472;49.880;8.650;2023-05-15T06:39:49;19.90;;;17.00;;
63346;SDS011;49472;49.880;8.650;2023-05-15T06:42:14;18.40;;;17.20;;
63346;SDS011;49472;49.880;8.650;2023-05-15T06:44:40;19.60;;;18.00;;
63346;SDS011;49472;49.880;8.650;2023-05-15T06:47:05;18.77;;;17.30;;
63346;SDS011;49472;49.880;8.650;2023-05-15T06:49:30;19.13;;;17.77;;
63346;SDS011;49472;49.880;8.650;2023-05-15T06:51:56;18.33;;;16.93;;
63346;SDS011;49472;49.880;8.650;2023-05-15T06:54:21;19.17;;;17.67;;
63346;SDS011;49472;49.880;8.650;2023-05-15T06:56:46;19.93;;;18.40;;
63346;SDS011;49472;49.880;8.650;2023-05-15T06:59:12;19.83;;;18.30;;
63346;SDS011;49472;49.880;8.650;2023-05-15T07:01:37;18.87;;;17.57;;
63346;SDS011;49472;49.880;8.650;2023-05-15T07:04:03;18.87;;;17.40;;
63346;SDS011;49472;49.880;8.650;2023-05-15T07:06:28;18.40;;;16.90;;
63346;SDS011;49472;49.880;8.650;2023-05-15T07:08:55;20.80;;;18.83;;
63346;SDS011;49472;49.880;8.650;2023-05-15T07:11:21;19.53;;;17.47;;
63346;SDS011;49472;49.880;8.650;2023-05-15T07:13:47;18.87;;;17.57;;
63346;SDS011;49472;49.880;8.650;2023-05-15T07:16:12;19.50;;;17.40;;
63346;SDS011;49472;49.880;8.650;2023-05-15T07:18:37;20.07;;;18.20;;
63346;SDS011;49472;49.880;8.650;2023-05-15T07:21:02;20.43;;;19.03;;
63346;SDS011;49472;49.880;8.650;2023-05-15T07:23:28;18.83;;;17.33;;
63346;SDS011;49472;49.880;8.650;2023-05-15T07:25:53;21.30;;;19.80;;
63346;SDS011;49472;49.880;8.650;2023-05-15T07:28:19;25.03;;;19.20;;
63346;SDS011;49472;49.880;8.650;2023-05-15T07:30:44;20.40;;;18.80;;
63346;SDS011;49472;49.880;8.650;2023-05-15T07:33:10;19.70;;;18.40;;
63346;SDS011;49472;49.880;8.650;2023-05-15T07:35:35;19.63;;;18.03;;
63346;SDS011;49472;49.880;8.650;2023-05-15T07:38:00;19.53;;;17.93;;
63346;SDS011;49472;49.880;8.650;2023-05-15T07:40:26;20.37;;;18.70;;
63346;SDS011;49472;49.880;8.650;2023-05-15T07:42:51;20.47;;;18.83;;
63346;SDS011;49472;49.880;8.650;2023-05-15T07:45:16;20.47;;;18.70;;
63346;SDS011;49472;49.880;8.650;2023-05-15T07:47:43;21.20;;;19.10;;
63346;SDS011;49472;49.880;8.650;2023-05-15T07:50:11;20.50;;;18.80;;
63346;SDS011;49472;49.880;8.650;2023-05-15T07:52:37;20.60;;;19.10;;
63346;SDS011;49472;49.880;8.650;2023-05-15T07:55:05;20.33;;;18.83;;
63346;SDS011;49472;49.880;8.650;2023-05-15T07:57:30;20.47;;;18.97;;
63346;SDS011;49472;49.880;8.650;2023-05-15T07:59:56;19.57;;;18.17;;
63346;SDS011;49472;49.880;8.650;2023-05-15T08:02:22;20.90;;;18.60;;
63346;SDS011;49472;49.880;8.650;2023-05-15T08:04:47;20.43;;;18.60;;
63346;SDS011;49472;49.880;8.650;2023-05-15T08:07:13;19.63;;;18.23;;
63346;SDS011;49472;49.880;8.650;2023-05-15T08:09:38;19.07;;;17.17;;
63346;SDS011;49472;49.880;8.650;2023-05-15T08:12:13;19.30;;;17.90;;
63346;SDS011;49472;49.880;8.650;2023-05-15T08:14:41;19.13;;;17.73;;
63346;SDS011;49472;49.880;8.650;2023-05-15T08:17:07;22.03;;;18.20;;
63346;SDS011;49472;49.880;8.650;2023-05-15T08:19:32;19.97;;;18.27;;
63346;SDS011;49472;49.880;8.650;2023-05-15T08:21:57;19.57;;;17.90;;
63346;SDS011;49472;49.880;8.650;2023-05-15T08:24:25;18.83;;;17.20;;
63346;SDS011;49472;49.880;8.650;2023-05-15T08:26:53;19.87;;;18.33;;
63346;SDS011;49472;49.880;8.650;2023-05-15T08:29:19;18.83;;;17.40;;
63346;SDS011;49472;49.880;8.650;2023-05-15T08:31:44;19.07;;;17.57;;
63346;SDS011;49472;49.880;8.650;2023-05-15T08:34:09;18.57;;;17.17;;
63346;SDS011;49472;49.880;8.650;2023-05-15T08:36:35;18.17;;;16.83;;
63346;SDS011;49472;49.880;8.650;2023-05-15T08:39:00;18.57;;;17.27;;
63346;SDS011;49472;49.880;8.650;2023-05-15T08:41:29;18.27;;;17.00;;
63346;SDS011;49472;49.880;8.650;2023-05-15T08:44:00;18.87;;;17.20;;
63346;SDS011;49472;49.880;8.650;2023-05-15T08:46:27;18.50;;;17.10;;
63346;SDS011;49472;49.880;8.650;2023-05-15T08:48:53;19.27;;;17.77;;
63346;SDS011;49472;49.880;8.650;2023-05-15T08:51:19;18.37;;;16.87;;
63346;SDS011;49472;49.880;8.650;2023-05-15T08:53:46;18.10;;;16.90;;
63346;SDS011;49472;49.880;8.650;2023-05-15T08:56:12;19.50;;;17.87;;
63346;SDS011;49472;49.880;8.650;2023-05-15T08:58:37;20.20;;;18.20;;
63346;SDS011;49472;49.880;8.650;2023-05-15T09:01:03;18.70;;;17.10;;
63346;SDS011;49472;49.880;8.650;2023-05-15T09:03:30;19.57;;;17.53;;
63346;SDS011;49472;49.880;8.650;2023-05-15T09:05:56;19.33;;;18.03;;
63346;SDS011;49472;49.880;8.650;2023-05-15T09:08:22;18.43;;;16.73;;
63346;SDS011;49472;49.880;8.650;2023-05-15T09:10:48;18.83;;;17.17;;
63346;SDS011;49472;49.880;8.650;2023-05-15T09:13:16;18.70;;;17.30;;
63346;SDS011;49472;49.880;8.650;2023-05-15T09:18:54;18.97;;;17.50;;
63346;SDS011;49472;49.880;8.650;2023-05-15T09:21:26;20.77;;;19.07;;
63346;SDS011;49472;49.880;8.650;2023-05-15T09:24:14;20.13;;;18.10;;
63346;SDS011;49472;49.880;8.650;2023-05-15T09:26:59;20.70;;;18.80;;
63346;SDS011;49472;49.880;8.650;2023-05-15T09:29:29;19.20;;;17.60;;
63346;SDS011;49472;49.880;8.650;2023-05-15T09:31:55;20.10;;;18.20;;
63346;SDS011;49472;49.880;8.650;2023-05-15T09:34:30;18.40;;;17.00;;
63346;SDS011;49472;49.880;8.650;2023-05-15T09:36:56;18.73;;;17.33;;
63346;SDS011;49472;49.880;8.650;2023-05-15T09:39:22;20.83;;;18.80;;
63346;SDS011;49472;49.880;8.650;2023-05-15T09:41:47;20.17;;;18.33;;
63346;SDS011;49472;49.880;8.650;2023-05-15T09:44:34;19.40;;;17.87;;
63346;SDS011;49472;49.880;8.650;2023-05-15T09:46:59;22.00;;;19.40;;
63346;SDS011;49472;49.880;8.650;2023-05-15T09:49:26;20.00;;;18.37;;
63346;SDS011;49472;49.880;8.650;2023-05-15T09:51:53;20.40;;;18.43;;
63346;SDS011;49472;49.880;8.650;2023-05-15T09:54:19;20.17;;;18.27;;
63346;SDS011;49472;49.880;8.650;2023-05-15T09:56:47;19.77;;;17.77;;
63346;SDS011;49472;49.880;8.650;2023-05-15T09:59:16;28.80;;;18.70;;
63346;SDS011;49472;49.880;8.650;2023-05-15T10:01:43;20.13;;;17.83;;
63346;SDS011;49472;49.880;8.650;2023-05-15T10:04:10;21.50;;;19.57;;
63346;SDS011;49472;49.880;8.650;2023-05-15T10:06:38;20.60;;;18.90;;
63346;SDS011;49472;49.880;8.650;2023-05-15T10:09:05;20.77;;;18.53;;
63346;SDS011;49472;49.880;8.650;2023-05-15T10:11:34;20.20;;;18.40;;
63346;SDS011;49472;49.880;8.650;2023-05-15T10:14:03;19.13;;;17.60;;
63346;SDS011;49472;49.880;8.650;2023-05-15T10:16:30;19.40;;;18.00;;
63346;SDS011;49472;49.880;8.650;2023-05-15T10:18:59;21.40;;;18.63;;
63346;SDS011;49472;49.880;8.650;2023-05-15T10:21:27;20.03;;;17.87;;
63346;SDS011;49472;49.880;8.650;2023-05-15T10:23:55;20.40;;;18.60;;
63346;SDS011;49472;49.880;8.650;2023-05-15T10:26:27;20.20;;;18.60;;
63346;SDS011;49472;49.880;8.650;2023-05-15T10:28:59;25.60;;;21.13;;
63346;SDS011;49472;49.880;8.650;2023-05-15T10:31:25;23.87;;;21.40;;
63346;SDS011;49472;49.880;8.650;2023-05-15T10:33:53;22.77;;;20.58;;
63346;SDS011;49472;49.880;8.650;2023-05-15T10:36:19;24.13;;;21.73;;
63346;SDS011;49472;49.880;8.650;2023-05-15T10:38:45;24.27;;;21.77;;
63346;SDS011;49472;49.880;8.650;2023-05-15T10:41:12;31.50;;;22.13;;
63346;SDS011;49472;49.880;8.650;2023-05-15T10:43:40;24.90;;;22.40;;
63346;SDS011;49472;49.880;8.650;2023-05-15T10:46:06;31.23;;;23.70;;
63346;SDS011;49472;49.880;8.650;2023-05-15T10:48:32;40.50;;;27.13;;
63346;SDS011;49472;49.880;8.650;2023-05-15T10:50:59;39.13;;;30.77;;
63346;SDS011;49472;49.880;8.650;2023-05-15T10:53:25;33.83;;;25.80;;
63346;SDS011;49472;49.880;8.650;2023-05-15T10:55:50;38.13;;;32.20;;
63346;SDS011;49472;49.880;8.650;2023-05-15T10:58:16;36.37;;;29.53;;
63346;SDS011;49472;49.880;8.650;2023-05-15T11:00:42;37.50;;;29.50;;
63346;SDS011;49472;49.880;8.650;2023-05-15T11:03:13;40.63;;;30.73;;
63346;SDS011;49472;49.880;8.650;2023-05-15T11:06:21;35.80;;;31.07;;
63346;SDS011;49472;49.880;8.650;2023-05-15T11:08:31;36.60;;;29.73;;
63346;SDS011;49472;49.880;8.650;2023-05-15T11:10:56;33.67;;;30.20;;
63346;SDS011;49472;49.880;8.650;2023-05-15T11:13:22;38.93;;;31.70;;
63346;SDS011;49472;49.880;8.650;2023-05-15T11:15:47;48.70;;;29.97;;
63346;SDS011;49472;49.880;8.650;2023-05-15T11:18:13;42.40;;;28.53;;
63346;SDS011;49472;49.880;8.650;2023-05-15T11:23:05;36.23;;;28.53;;
63346;SDS011;49472;49.880;8.650;2023-05-15T11:25:31;32.90;;;27.93;;
63346;SDS011;49472;49.880;8.650;2023-05-15T11:27:56;35.23;;;29.77;;
63346;SDS011;49472;49.880;8.650;2023-05-15T11:30:22;37.73;;;28.40;;
63346;SDS011;49472;49.880;8.650;2023-05-15T11:35:34;35.03;;;31.20;;
63346;SDS011;49472;49.880;8.650;2023-05-15T11:40:48;30.25;;;27.05;;
63346;SDS011;49472;49.880;8.650;2023-05-15T11:43:27;29.63;;;26.58;;
63346;SDS011;49472;49.880;8.650;2023-05-15T11:45:58;29.10;;;26.20;;
63346;SDS011;49472;49.880;8.650;2023-05-15T11:48:30;37.47;;;26.80;;
63346;SDS011;49472;49.880;8.650;2023-05-15T11:51:03;29.02;;;26.08;;
63346;SDS011;49472;49.880;8.650;2023-05-15T11:53:29;30.02;;;25.52;;
63346;SDS011;49472;49.880;8.650;2023-05-15T11:55:55;29.55;;;26.17;;
63346;SDS011;49472;49.880;8.650;2023-05-15T11:58:21;28.40;;;25.42;;
63346;SDS011;49472;49.880;8.650;2023-05-15T12:00:48;30.70;;;27.43;;
63346;SDS011;49472;49.880;8.650;2023-05-15T12:03:25;33.37;;;28.00;;
63346;SDS011;49472;49.880;8.650;2023-05-15T12:05:52;35.67;;;27.73;;
63346;SDS011;49472;49.880;8.650;2023-05-15T12:08:18;39.13;;;27.93;;
63346;SDS011;49472;49.880;8.650;2023-05-15T12:10:47;32.60;;;27.40;;
63346;SDS011;49472;49.880;8.650;2023-05-15T12:13:14;29.20;;;26.20;;
63346;SDS011;49472;49.880;8.650;2023-05-15T12:15:42;39.87;;;28.33;;
63346;SDS011;49472;49.880;8.650;2023-05-15T12:18:09;29.77;;;26.03;;
63346;SDS011;49472;49.880;8.650;2023-05-15T12:20:35;29.85;;;27.15;;
63346;SDS011;49472;49.880;8.650;2023-05-15T12:23:02;28.90;;;26.07;;
63346;SDS011;49472;49.880;8.650;2023-05-15T12:25:28;29.80;;;26.53;;
63346;SDS011;49472;49.880;8.650;2023-05-15T12:27:53;29.60;;;25.50;;
63346;SDS011;49472;49.880;8.650;2023-05-15T12:30:19;30.40;;;26.10;;
63346;SDS011;49472;49.880;8.650;2023-05-15T12:32:45;27.00;;;23.40;;
63346;SDS011;49472;49.880;8.650;2023-05-15T12:35:10;25.92;;;22.45;;
63346;SDS011;49472;49.880;8.650;2023-05-15T12:37:36;27.92;;;24.95;;
63346;SDS011;49472;49.880;8.650;2023-05-15T12:40:03;29.80;;;25.55;;
63346;SDS011;49472;49.880;8.650;2023-05-15T12:42:40;28.23;;;25.15;;
63346;SDS011;49472;49.880;8.650;2023-05-15T12:45:13;26.73;;;23.98;;
63346;SDS011;49472;49.880;8.650;2023-05-15T12:47:40;25.95;;;23.38;;
63346;SDS011;49472;49.880;8.650;2023-05-15T12:50:16;26.40;;;23.70;;
63346;SDS011;49472;49.880;8.650;2023-05-15T12:53:01;31.17;;;25.60;;
63346;SDS011;49472;49.880;8.650;2023-05-15T12:55:32;25.52;;;23.13;;
63346;SDS011;49472;49.880;8.650;2023-05-15T12:58:06;25.88;;;22.70;;
63346;SDS011;49472;49.880;8.650;2023-05-15T13:00:40;25.38;;;22.90;;
63346;SDS011;49472;49.880;8.650;2023-05-15T13:03:07;24.50;;;22.30;;
63346;SDS011;49472;49.880;8.650;2023-05-15T13:05:35;25.80;;;23.38;;
63346;SDS011;49472;49.880;8.650;2023-05-15T13:08:02;26.52;;;23.63;;
63346;SDS011;49472;49.880;8.650;2023-05-15T13:10:31;25.73;;;21.52;;
63346;SDS011;49472;49.880;8.650;2023-05-15T13:12:57;21.92;;;19.85;;
63346;SDS011;49472;49.880;8.650;2023-05-15T13:15:36;35.08;;;19.40;;
63346;SDS011;49472;49.880;8.650;2023-05-15T13:18:15;20.35;;;18.20;;
63346;SDS011;49472;49.880;8.650;2023-05-15T13:20:45;21.55;;;19.65;;
63346;SDS011;49472;49.880;8.650;2023-05-15T13:23:13;20.95;;;19.15;;
63346;SDS011;49472;49.880;8.650;2023-05-15T13:25:41;22.05;;;20.15;;
63346;SDS011;49472;49.880;8.650;2023-05-15T13:28:07;20.10;;;18.63;;
63346;SDS011;49472;49.880;8.650;2023-05-15T13:30:37;20.70;;;18.85;;
63346;SDS011;49472;49.880;8.650;2023-05-15T13:33:05;19.60;;;17.83;;
63346;SDS011;49472;49.880;8.650;2023-05-15T13:35:35;19.80;;;18.10;;
63346;SDS011;49472;49.880;8.650;2023-05-15T13:38:01;20.65;;;19.05;;
63346;SDS011;49472;49.880;8.650;2023-05-15T13:40:26;21.27;;;19.20;;
63346;SDS011;49472;49.880;8.650;2023-05-15T13:42:52;20.98;;;19.17;;
63346;SDS011;49472;49.880;8.650;2023-05-15T13:45:17;23.92;;;18.50;;
63346;SDS011;49472;49.880;8.650;2023-05-15T13:47:43;19.00;;;17.15;;
63346;SDS011;49472;49.880;8.650;2023-05-15T13:50:09;18.17;;;16.63;;
63346;SDS011;49472;49.880;8.650;2023-05-15T13:52:36;18.63;;;17.23;;
63346;SDS011;49472;49.880;8.650;2023-05-15T13:55:02;17.15;;;15.88;;
63346;SDS011;49472;49.880;8.650;2023-05-15T13:57:31;17.10;;;15.77;;
63346;SDS011;49472;49.880;8.650;2023-05-15T13:59:56;17.85;;;16.48;;
63346;SDS011;49472;49.880;8.650;2023-05-15T14:02:22;17.20;;;15.85;;
63346;SDS011;49472;49.880;8.650;2023-05-15T14:04:51;17.75;;;16.25;;
63346;SDS011;49472;49.880;8.650;2023-05-15T14:07:17;17.13;;;15.88;;
63346;SDS011;49472;49.880;8.650;2023-05-15T14:09:43;17.00;;;15.60;;
63346;SDS011;49472;49.880;8.650;2023-05-15T14:12:08;17.92;;;16.50;;
63346;SDS011;49472;49.880;8.650;2023-05-15T14:14:34;20.80;;;15.80;;
63346;SDS011;49472;49.880;8.650;2023-05-15T14:16:59;16.98;;;15.77;;
63346;SDS011;49472;49.880;8.650;2023-05-15T14:19:25;18.42;;;16.80;;
63346;SDS011;49472;49.880;8.650;2023-05-15T14:21:50;20.88;;;19.13;;
63346;SDS011;49472;49.880;8.650;2023-05-15T14:24:15;19.25;;;17.60;;
63346;SDS011;49472;49.880;8.650;2023-05-15T14:26:41;19.00;;;17.52;;
63346;SDS011;49472;49.880;8.650;2023-05-15T14:29:08;19.52;;;16.60;;
63346;SDS011;49472;49.880;8.650;2023-05-15T14:31:33;19.52;;;17.70;;
63346;SDS011;49472;49.880;8.650;2023-05-15T14:33:59;19.33;;;17.48;;
63346;SDS011;49472;49.880;8.650;2023-05-15T14:36:25;18.70;;;17.23;;
63346;SDS011;49472;49.880;8.650;2023-05-15T14:38:50;18.75;;;17.10;;
63346;SDS011;49472;49.880;8.650;2023-05-15T14:41:16;19.65;;;17.88;;